createdAt,value
2023-05-02T00:00:50.701Z,98315.22
2023-05-02T00:03:38.756Z,98313.81
2023-05-02T00:06:26.620Z,98319.25
2023-05-02T00:09:16.450Z,98308.22
2023-05-02T00:12:04.256Z,98312.97
2023-05-02T00:14:52.203Z,98311.44
2023-05-02T00:17:43.547Z,98312.66
2023-05-02T00:20:31.361Z,98306.81
2023-05-02T00:23:19.282Z,98311.53
2023-05-02T00:26:11.747Z,98303.88
2023-05-02T00:29:00.711Z,98302.34
2023-05-02T00:31:48.849Z,98298.97
2023-05-02T00:34:36.844Z,98309.00
2023-05-02T00:37:29.058Z,98304.78
2023-05-02T00:40:16.947Z,98308.56
2023-05-02T00:43:06.512Z,98301.72
2023-05-02T00:45:54.353Z,98302.00
2023-05-02T00:48:42.177Z,98300.34
2023-05-02T00:51:30.426Z,98297.81
2023-05-02T00:54:18.321Z,98310.31
2023-05-02T00:57:06.715Z,98317.53
2023-05-02T00:59:56.365Z,98310.84
2023-05-02T01:02:54.294Z,98310.84
2023-05-02T01:05:50.308Z,98310.41
2023-05-02T01:08:43.329Z,98302.47
2023-05-02T01:11:38.808Z,98309.00
2023-05-02T01:14:30.683Z,98298.44
2023-05-02T01:17:24.104Z,98301.47
2023-05-02T01:20:17.472Z,98301.59
2023-05-02T01:23:11.489Z,98305.47
2023-05-02T01:26:10.402Z,98310.03
2023-05-02T01:29:01.883Z,98310.28
2023-05-02T01:31:52.378Z,98306.00
2023-05-02T01:34:44.200Z,98305.31
2023-05-02T01:37:32.826Z,98304.59
2023-05-02T01:40:22.872Z,98302.34
2023-05-02T01:43:12.591Z,98308.72
2023-05-02T01:46:04.262Z,98317.59
2023-05-02T01:48:56.088Z,98324.38
2023-05-02T01:51:48.273Z,98327.34
2023-05-02T01:54:37.793Z,98335.69
2023-05-02T01:57:26.734Z,98335.00
2023-05-02T02:00:17.298Z,98330.53
2023-05-02T02:03:10.545Z,98334.16
2023-05-02T02:06:01.030Z,98331.63
2023-05-02T02:08:48.735Z,98338.16
2023-05-02T02:11:44.519Z,98334.78
2023-05-02T02:14:37.829Z,98342.56
2023-05-02T02:17:31.390Z,98344.41
2023-05-02T02:20:21.648Z,98351.59
2023-05-02T02:23:11.774Z,98353.50
2023-05-02T02:25:59.790Z,98348.25
2023-05-02T02:28:47.774Z,98352.81
2023-05-02T02:31:36.483Z,98364.31
2023-05-02T02:34:25.493Z,98365.41
2023-05-02T02:37:19.029Z,98357.63
2023-05-02T02:40:13.564Z,98368.31
2023-05-02T02:43:09.335Z,98372.03
2023-05-02T02:46:12.566Z,98365.34
2023-05-02T02:49:17.449Z,98377.56
2023-05-02T02:52:11.813Z,98369.91
2023-05-02T02:55:10.521Z,98378.06
2023-05-02T02:58:03.554Z,98382.63
2023-05-02T03:00:53.148Z,98381.94
2023-05-02T03:03:43.656Z,98383.84
2023-05-02T03:06:32.498Z,98391.03
2023-05-02T03:09:20.187Z,98391.88
2023-05-02T03:12:09.550Z,98403.28
2023-05-02T03:15:03.703Z,98409.78
2023-05-02T03:17:51.838Z,98407.34
2023-05-02T03:20:39.885Z,98410.94
2023-05-02T03:23:27.952Z,98408.53
2023-05-02T03:26:15.969Z,98408.78
2023-05-02T03:29:05.443Z,98412.50
2023-05-02T03:31:53.291Z,98417.19
2023-05-02T03:34:41.789Z,98408.56
2023-05-02T03:37:29.522Z,98409.66
2023-05-02T03:40:21.695Z,98422.25
2023-05-02T03:43:09.649Z,98410.97
2023-05-02T03:45:59.642Z,98425.13
2023-05-02T03:48:47.414Z,98425.13
2023-05-02T03:51:35.640Z,98438.31
2023-05-02T03:54:24.046Z,98432.06
2023-05-02T03:57:12.447Z,98432.91
2023-05-02T04:00:00.713Z,98438.06
2023-05-02T04:02:50.021Z,98442.00
2023-05-02T04:05:37.941Z,98460.59
2023-05-02T04:08:26.204Z,98465.75
2023-05-02T04:11:13.897Z,98475.19
2023-05-02T04:14:02.051Z,98473.06
2023-05-02T04:16:50.428Z,98471.00
2023-05-02T04:19:40.003Z,98474.47
2023-05-02T04:22:28.090Z,98473.66
2023-05-02T04:25:16.285Z,98487.91
2023-05-02T04:28:04.989Z,98492.13
2023-05-02T04:30:53.617Z,98488.88
2023-05-02T04:33:41.648Z,98496.88
2023-05-02T04:36:30.933Z,98504.16
2023-05-02T04:39:18.897Z,98515.19
2023-05-02T04:42:06.969Z,98522.59
2023-05-02T04:44:54.973Z,98518.78
2023-05-02T04:47:42.925Z,98525.13
2023-05-02T04:50:32.121Z,98527.75
2023-05-02T04:53:22.832Z,98539.47
2023-05-02T04:56:11.318Z,98539.22
2023-05-02T04:58:59.139Z,98536.22
2023-05-02T05:01:47.261Z,98542.91
2023-05-02T05:04:35.249Z,98554.19
2023-05-02T05:07:23.210Z,98560.19
2023-05-02T05:10:13.011Z,98562.19
2023-05-02T05:13:00.719Z,98565.31
2023-05-02T05:15:49.539Z,98571.78
2023-05-02T05:18:40.725Z,98578.16
2023-05-02T05:21:28.792Z,98575.44
2023-05-02T05:24:16.859Z,98568.25
2023-05-02T05:27:06.420Z,98574.09
2023-05-02T05:29:54.472Z,98576.69
2023-05-02T05:32:42.592Z,98587.59
2023-05-02T05:35:32.051Z,98592.94
2023-05-02T05:38:19.988Z,98595.22
2023-05-02T05:41:09.002Z,98597.00
2023-05-02T05:43:58.918Z,98600.56
2023-05-02T05:46:46.545Z,98604.47
2023-05-02T05:49:38.443Z,98606.59
2023-05-02T05:52:26.777Z,98604.69
2023-05-02T05:55:14.982Z,98612.91
2023-05-02T05:58:03.077Z,98622.44
2023-05-02T06:00:52.517Z,98628.16
2023-05-02T06:03:40.369Z,98625.97
2023-05-02T06:06:28.526Z,98629.75
2023-05-02T06:09:16.657Z,98629.25
2023-05-02T06:12:04.839Z,98636.66
2023-05-02T06:14:52.718Z,98639.88
2023-05-02T06:17:42.173Z,98654.16
2023-05-02T06:20:30.039Z,98649.13
2023-05-02T06:23:17.971Z,98657.66
2023-05-02T06:26:06.738Z,98662.97
2023-05-02T06:28:55.678Z,98663.75
2023-05-02T06:31:43.694Z,98678.00
2023-05-02T06:34:35.208Z,98678.34
2023-05-02T06:37:23.622Z,98678.06
2023-05-02T06:40:13.517Z,98683.94
2023-05-02T06:43:01.367Z,98687.88
2023-05-02T06:45:49.370Z,98691.91
2023-05-02T06:48:37.602Z,98694.56
2023-05-02T06:51:27.726Z,98696.41
2023-05-02T06:54:18.649Z,98693.22
2023-05-02T06:57:06.485Z,98704.38
2023-05-02T06:59:54.291Z,98708.59
2023-05-02T07:02:42.311Z,98707.94
2023-05-02T07:05:31.390Z,98718.72
2023-05-02T07:08:22.484Z,98723.44
2023-05-02T07:11:10.480Z,98704.69
2023-05-02T07:13:58.127Z,98696.91
2023-05-02T07:16:46.172Z,98694.44
2023-05-02T07:19:34.319Z,98689.66
2023-05-02T07:22:22.857Z,98683.78
2023-05-02T07:25:12.539Z,98686.75
2023-05-02T07:28:00.455Z,98682.44
2023-05-02T07:30:48.414Z,98674.31
2023-05-02T07:33:36.485Z,98680.75
2023-05-02T07:36:24.452Z,98672.91
2023-05-02T07:39:12.300Z,98682.97
2023-05-02T07:42:03.338Z,98688.00
2023-05-02T07:44:51.218Z,98692.75
2023-05-02T07:47:39.289Z,98699.16
2023-05-02T07:50:27.252Z,98720.41
2023-05-02T07:53:15.121Z,98722.50
2023-05-02T07:56:04.091Z,98732.69
2023-05-02T07:58:53.399Z,98732.66
2023-05-02T08:01:41.613Z,98741.44
2023-05-02T08:04:29.596Z,98742.94
2023-05-02T08:07:17.540Z,98751.28
2023-05-02T08:10:06.145Z,98750.13
2023-05-02T08:12:54.064Z,98760.13
2023-05-02T08:15:43.348Z,98752.56
2023-05-02T08:18:31.228Z,98750.63
2023-05-02T08:21:19.551Z,98753.69
2023-05-02T08:24:07.735Z,98728.13
2023-05-02T08:26:55.844Z,98729.03
2023-05-02T08:29:43.653Z,98725.00
2023-05-02T08:32:34.296Z,98721.84
2023-05-02T08:35:25.077Z,98720.81
2023-05-02T08:38:12.920Z,98714.75
2023-05-02T08:41:01.621Z,98712.69
2023-05-02T08:43:49.784Z,98712.97
2023-05-02T08:46:41.690Z,98707.44
2023-05-02T08:49:32.524Z,98714.25
2023-05-02T08:52:22.460Z,98718.81
2023-05-02T08:55:10.804Z,98716.97
2023-05-02T08:58:01.601Z,98720.09
2023-05-02T09:00:52.158Z,98718.75
2023-05-02T09:03:40.630Z,98715.22
2023-05-02T09:06:30.220Z,98719.13
2023-05-02T09:09:19.209Z,98722.22
2023-05-02T09:12:07.533Z,98714.00
2023-05-02T09:15:10.938Z,98712.00
2023-05-02T09:17:59.038Z,98711.06
2023-05-02T09:20:47.069Z,98700.31
2023-05-02T09:23:38.121Z,98699.00
2023-05-02T09:26:29.504Z,98700.28
2023-05-02T09:29:22.030Z,98693.53
2023-05-02T09:32:10.034Z,98687.81
2023-05-02T09:35:08.343Z,98689.66
2023-05-02T09:37:57.178Z,98688.84
2023-05-02T09:40:56.012Z,98690.28
2023-05-02T09:43:43.604Z,98678.56
2023-05-02T09:46:41.889Z,98682.94
2023-05-02T09:49:42.545Z,98688.78
2023-05-02T09:52:30.525Z,98680.91
2023-05-02T09:55:22.913Z,98693.13
2023-05-02T09:58:22.745Z,98687.28
2023-05-02T10:01:15.502Z,98683.38
2023-05-02T10:04:05.433Z,98682.78
2023-05-02T10:06:53.891Z,98683.13
2023-05-02T10:09:45.515Z,98679.50
2023-05-02T10:12:34.889Z,98673.09
2023-05-02T10:15:26.171Z,98676.56
2023-05-02T10:18:17.797Z,98681.56
2023-05-02T10:21:10.068Z,98678.72
2023-05-02T10:23:59.197Z,98678.25
2023-05-02T10:26:48.467Z,98677.09
2023-05-02T10:29:37.144Z,98667.31
2023-05-02T10:32:29.070Z,98673.56
2023-05-02T10:35:18.591Z,98671.41
2023-05-02T10:38:08.443Z,98670.22
2023-05-02T10:41:02.132Z,98663.47
2023-05-02T10:43:51.358Z,98662.00
2023-05-02T10:46:41.330Z,98661.84
2023-05-02T10:49:30.697Z,98655.88
2023-05-02T10:52:38.098Z,98644.56
2023-05-02T10:55:26.201Z,98652.56
2023-05-02T10:58:23.776Z,98648.38
2023-05-02T11:01:36.577Z,98652.06
2023-05-02T11:04:24.662Z,98649.28
2023-05-02T11:07:23.456Z,98644.94
2023-05-02T11:10:28.440Z,98639.44
2023-05-02T11:13:16.460Z,98636.69
2023-05-02T11:16:04.370Z,98635.94
2023-05-02T11:19:01.950Z,98641.03
2023-05-02T11:21:49.996Z,98635.34
2023-05-02T11:24:44.497Z,98634.19
2023-05-02T11:27:39.241Z,98644.63
2023-05-02T11:30:45.045Z,98645.63
2023-05-02T11:33:32.766Z,98641.94
2023-05-02T11:36:30.787Z,98641.75
2023-05-02T11:39:22.969Z,98648.09
2023-05-02T11:42:11.833Z,98641.56
2023-05-02T11:45:02.274Z,98656.59
2023-05-02T11:47:51.965Z,98657.81
2023-05-02T11:50:49.632Z,98658.31
2023-05-02T11:53:42.915Z,98658.28
2023-05-02T11:56:30.602Z,98660.06
2023-05-02T11:59:19.969Z,98661.84
2023-05-02T12:02:08.744Z,98665.09
2023-05-02T12:04:56.746Z,98675.34
2023-05-02T12:07:46.297Z,98684.19
2023-05-02T12:10:38.590Z,98687.31
2023-05-02T12:13:27.793Z,98688.28
2023-05-02T12:16:17.715Z,98696.03
2023-05-02T12:19:05.977Z,98687.53
2023-05-02T12:21:54.176Z,98687.53
2023-05-02T12:24:43.387Z,98684.31
2023-05-02T12:27:33.310Z,98690.13
2023-05-02T12:30:27.834Z,98716.09
2023-05-02T12:33:17.735Z,98724.19
2023-05-02T12:36:10.802Z,98741.22
2023-05-02T12:39:00.386Z,98748.13
2023-05-02T12:41:48.224Z,98754.06
2023-05-02T12:44:41.481Z,98746.31
2023-05-02T12:47:30.160Z,98748.59
2023-05-02T12:50:19.647Z,98756.72
2023-05-02T12:53:08.020Z,98750.38
2023-05-02T12:56:04.754Z,98767.00
2023-05-02T12:58:52.492Z,98769.22
2023-05-02T13:01:40.596Z,98778.94
2023-05-02T13:04:36.382Z,98781.28
2023-05-02T13:07:25.995Z,98787.72
2023-05-02T13:10:17.810Z,98781.19
2023-05-02T13:13:05.711Z,98777.41
2023-05-02T13:15:53.713Z,98769.53
2023-05-02T13:18:41.849Z,98769.38
2023-05-02T13:21:30.067Z,98762.41
2023-05-02T13:24:19.371Z,98762.50
2023-05-02T13:27:07.367Z,98758.06
2023-05-02T13:29:55.499Z,98761.59
2023-05-02T13:32:43.438Z,98767.56
2023-05-02T13:35:33.343Z,98770.38
2023-05-02T13:38:22.517Z,98767.44
2023-05-02T13:41:11.485Z,98760.66
2023-05-02T13:43:59.578Z,98758.13
2023-05-02T13:46:47.964Z,98751.31
2023-05-02T13:49:35.785Z,98745.72
2023-05-02T13:52:23.822Z,98742.16
2023-05-02T13:55:12.762Z,98740.63
2023-05-02T13:58:02.589Z,98740.72
2023-05-02T14:00:50.791Z,98744.94
2023-05-02T14:03:38.867Z,98742.91
2023-05-02T14:06:27.030Z,98735.78
2023-05-02T14:09:15.833Z,98733.69
2023-05-02T14:12:03.535Z,98737.53
2023-05-02T14:14:52.992Z,98722.47
2023-05-02T14:17:40.884Z,98729.13
2023-05-02T14:20:28.871Z,98734.00
2023-05-02T14:23:16.744Z,98734.59
2023-05-02T14:26:04.809Z,98731.03
2023-05-02T14:28:52.825Z,98729.09
2023-05-02T14:31:42.109Z,98737.00
2023-05-02T14:34:30.567Z,98724.47
2023-05-02T14:37:18.564Z,98730.00
2023-05-02T14:40:09.225Z,98725.13
2023-05-02T14:42:57.152Z,98719.47
2023-05-02T14:45:44.763Z,98724.34
2023-05-02T14:48:34.147Z,98713.03
2023-05-02T14:51:22.085Z,98718.13
2023-05-02T14:54:09.941Z,98713.06
2023-05-02T14:56:58.061Z,98719.44
2023-05-02T14:59:49.090Z,98716.72
2023-05-02T15:02:37.581Z,98718.75
2023-05-02T15:05:27.176Z,98713.81
2023-05-02T15:08:15.264Z,98712.38
2023-05-02T15:11:03.311Z,98710.34
2023-05-02T15:13:51.212Z,98706.03
2023-05-02T15:16:39.793Z,98711.84
2023-05-02T15:19:28.125Z,98712.00
2023-05-02T15:22:18.294Z,98707.56
2023-05-02T15:25:06.765Z,98706.06
2023-05-02T15:27:54.572Z,98709.34
2023-05-02T15:30:42.526Z,98712.28
2023-05-02T15:33:30.671Z,98704.41
2023-05-02T15:36:18.524Z,98708.41
2023-05-02T15:39:08.602Z,98708.34
2023-05-02T15:41:56.931Z,98710.88
2023-05-02T15:44:44.952Z,98715.81
2023-05-02T15:47:32.855Z,98715.13
2023-05-02T15:50:21.522Z,98711.66
2023-05-02T15:53:09.519Z,98722.50
2023-05-02T15:55:58.927Z,98711.06
2023-05-02T15:58:46.696Z,98706.84
2023-05-02T16:01:35.175Z,98709.31
2023-05-02T16:04:25.522Z,98717.16
2023-05-02T16:07:13.565Z,98713.88
2023-05-02T16:10:01.827Z,98711.78
2023-05-02T16:12:51.361Z,98709.56
2023-05-02T16:15:39.495Z,98721.50
2023-05-02T16:18:28.858Z,98724.34
2023-05-02T16:21:16.761Z,98716.19
2023-05-02T16:24:04.983Z,98722.03
2023-05-02T16:26:52.680Z,98718.06
2023-05-02T16:29:41.926Z,98722.38
2023-05-02T16:32:29.981Z,98720.97
2023-05-02T16:35:19.826Z,98717.56
2023-05-02T16:38:07.448Z,98716.72
2023-05-02T16:40:55.383Z,98716.72
2023-05-02T16:43:43.431Z,98716.72
2023-05-02T16:46:33.560Z,98717.81
2023-05-02T16:49:21.450Z,98720.22
2023-05-02T16:52:09.435Z,98733.16
2023-05-02T16:54:57.435Z,98731.84
2023-05-02T16:57:45.626Z,98741.19
2023-05-02T17:00:33.997Z,98748.50
2023-05-02T17:03:23.604Z,98742.72
2023-05-02T17:06:11.276Z,98745.88
2023-05-02T17:08:59.013Z,98757.13
2023-05-02T17:11:47.138Z,98766.63
2023-05-02T17:14:35.644Z,98766.44
2023-05-02T17:17:23.888Z,98771.31
2023-05-02T17:20:13.588Z,98783.59
2023-05-02T17:23:02.217Z,98779.97
2023-05-02T17:25:50.865Z,98792.72
2023-05-02T17:28:39.605Z,98799.22
2023-05-02T17:31:27.463Z,98795.44
2023-05-02T17:34:15.482Z,98795.91
2023-05-02T17:37:05.297Z,98814.75
2023-05-02T17:39:53.390Z,98820.06
2023-05-02T17:42:43.380Z,98827.91
2023-05-02T17:45:31.466Z,98821.66
2023-05-02T17:48:19.680Z,98833.19
2023-05-02T17:51:08.055Z,98834.78
2023-05-02T17:53:57.385Z,98838.59
2023-05-02T17:56:45.480Z,98838.41
2023-05-02T17:59:33.500Z,98840.31
2023-05-02T18:02:22.539Z,98851.56
2023-05-02T18:05:11.109Z,98844.41
2023-05-02T18:07:59.043Z,98854.53
2023-05-02T18:10:48.565Z,98861.63
2023-05-02T18:13:39.571Z,98865.84
2023-05-02T18:16:29.417Z,98868.75
2023-05-02T18:19:17.729Z,98867.59
2023-05-02T18:22:05.662Z,98868.25
2023-05-02T18:24:54.333Z,98877.97
2023-05-02T18:27:43.659Z,98882.81
2023-05-02T18:30:31.167Z,98880.94
2023-05-02T18:33:19.512Z,98888.13
2023-05-02T18:36:07.606Z,98877.53
2023-05-02T18:38:55.817Z,98888.06
2023-05-02T18:41:44.240Z,98892.38
2023-05-02T18:44:33.600Z,98894.19
2023-05-02T18:47:24.391Z,98905.50
2023-05-02T18:50:12.347Z,98907.91
2023-05-02T18:53:00.163Z,98921.75
2023-05-02T18:55:48.279Z,98921.44
2023-05-02T18:58:36.400Z,98932.25
2023-05-02T19:01:26.580Z,98931.97
2023-05-02T19:04:14.688Z,98935.38
2023-05-02T19:07:02.739Z,98934.72
2023-05-02T19:09:51.132Z,98940.13
2023-05-02T19:12:39.564Z,98943.31
2023-05-02T19:15:28.701Z,98951.00
2023-05-02T19:18:18.071Z,98953.22
2023-05-02T19:21:12.465Z,98962.25
2023-05-02T19:24:00.352Z,98962.94
2023-05-02T19:26:48.269Z,98963.44
2023-05-02T19:29:36.203Z,98970.28
2023-05-02T19:32:25.128Z,98980.81
2023-05-02T19:35:15.631Z,98987.31
2023-05-02T19:38:03.702Z,99006.31
2023-05-02T19:40:51.928Z,99000.56
2023-05-02T19:43:39.781Z,99012.25
2023-05-02T19:46:27.836Z,99015.19
2023-05-02T19:49:16.194Z,99021.78
2023-05-02T19:52:07.503Z,99026.44
2023-05-02T19:54:55.563Z,99035.03
2023-05-02T19:57:44.529Z,99026.44
2023-05-02T20:00:32.860Z,99028.19
2023-05-02T20:03:22.390Z,99039.84
2023-05-02T20:06:10.301Z,99037.25
2023-05-02T20:08:59.562Z,99037.88
2023-05-02T20:11:47.257Z,99036.44
2023-05-02T20:14:35.346Z,99042.41
2023-05-02T20:17:23.411Z,99039.59
2023-05-02T20:20:12.469Z,99045.03
2023-05-02T20:23:00.399Z,99040.75
2023-05-02T20:25:49.892Z,99045.19
2023-05-02T20:28:37.768Z,99054.06
2023-05-02T20:31:26.128Z,99053.97
2023-05-02T20:34:13.807Z,99050.38
2023-05-02T20:37:02.192Z,99059.25
2023-05-02T20:39:49.967Z,99058.03
2023-05-02T20:42:41.371Z,99060.63
2023-05-02T20:45:29.555Z,99058.69
2023-05-02T20:48:18.837Z,99055.06
2023-05-02T20:51:06.644Z,99064.31
2023-05-02T20:53:54.699Z,99062.94
2023-05-02T20:56:42.660Z,99070.81
2023-05-02T20:59:34.969Z,99076.03
2023-05-02T21:02:22.896Z,99081.94
2023-05-02T21:05:11.184Z,99090.50
2023-05-02T21:08:01.864Z,99084.03
2023-05-02T21:10:49.812Z,99092.59
2023-05-02T21:13:37.591Z,99089.69
2023-05-02T21:16:27.002Z,99094.72
2023-05-02T21:19:14.863Z,99095.28
2023-05-02T21:22:02.595Z,99095.97
2023-05-02T21:24:51.086Z,99102.84
2023-05-02T21:27:39.224Z,99099.94
2023-05-02T21:30:27.420Z,99105.53
2023-05-02T21:33:17.696Z,99100.63
2023-05-02T21:36:07.082Z,99105.50
2023-05-02T21:38:55.222Z,99111.38
2023-05-02T21:41:43.027Z,99112.06
2023-05-02T21:44:30.982Z,99116.00
2023-05-02T21:47:19.025Z,99121.59
2023-05-02T21:50:09.315Z,99122.13
2023-05-02T21:52:57.530Z,99118.47
2023-05-02T21:55:45.308Z,99117.22
2023-05-02T21:58:33.272Z,99121.41
2023-05-02T22:01:21.242Z,99118.28
2023-05-02T22:04:09.178Z,99128.38
2023-05-02T22:06:58.808Z,99130.19
2023-05-02T22:09:47.006Z,99138.69
2023-05-02T22:12:34.999Z,99132.66
2023-05-02T22:15:22.902Z,99130.97
2023-05-02T22:18:11.105Z,99137.41
2023-05-02T22:20:58.958Z,99138.50
2023-05-02T22:23:48.411Z,99139.06
2023-05-02T22:26:36.692Z,99126.03
2023-05-02T22:29:28.043Z,99134.28
2023-05-02T22:32:15.943Z,99135.63
2023-05-02T22:35:04.495Z,99134.22
2023-05-02T22:37:52.497Z,99138.09
2023-05-02T22:40:42.076Z,99131.22
2023-05-02T22:43:30.183Z,99129.91
2023-05-02T22:46:18.124Z,99143.59
2023-05-02T22:49:07.210Z,99144.84
2023-05-02T22:51:57.937Z,99141.88
2023-05-02T22:54:46.081Z,99139.34
2023-05-02T22:57:35.158Z,99148.53
2023-05-02T23:00:23.452Z,99153.41
2023-05-02T23:03:11.928Z,99159.94
2023-05-02T23:06:00.340Z,99154.91
2023-05-02T23:08:48.501Z,99162.38
2023-05-02T23:11:36.686Z,99154.00
2023-05-02T23:14:26.187Z,99162.09
2023-05-02T23:17:14.081Z,99166.06
2023-05-02T23:20:02.732Z,99163.78
2023-05-02T23:22:51.269Z,99171.19
2023-05-02T23:25:39.904Z,99164.97
2023-05-02T23:28:28.174Z,99170.75
2023-05-02T23:31:17.202Z,99168.63
2023-05-02T23:34:05.214Z,99161.03
2023-05-02T23:36:53.651Z,99163.34
2023-05-02T23:39:41.717Z,99159.38
2023-05-02T23:42:32.021Z,99159.06
2023-05-02T23:45:20.147Z,99152.28
2023-05-02T23:48:09.850Z,99159.06
2023-05-02T23:50:57.586Z,99161.25
2023-05-02T23:53:45.514Z,99158.38
2023-05-02T23:56:33.650Z,99157.78
2023-05-02T23:59:22.007Z,99152.84
